Meeks Bay, California
Current Conditions -  °F | °C
As of 6:13 PM on Friday 19 Dec 2014 (Local Time) from KTVL Reporting Station
Light Snow Light Snow  
Wind Chill: 35°   Ceiling: 1600
Heat Index: 35°   Visibility: 2mi
Dew Point: 31°   Wind: 0mph
Humidity: 85%   Direction: NA
Pressure: 30.14"   Gusts: NA
Location:  39.0516°N, 120.165°W
Report Text: KTVL 200213Z AUTO 00000KT 2SM -SN BR OVC016 02/M01 A3014 RMK AO2 P0002 T00171006
Loading
Personal Weather Stations






























Interactive Weather Map New forecast layout! Learn more

10-Day Weather Forecast

Advertisements
Track Severe Weather on mobile